Aérodrome :
LOGIN :

S'inscrire | Disclaimer

   EN    FR    IT 

 










Légende :    VFR   VFR Marginal   IFR   IFR Intensif   IFR Très Intensif
Visi : 
Plafond : 
>= 8 km
>= 3000ft
5 à 8 km
1000 à 3000 ft
1500m à 5 km
500 à 1000 ft
800 à 1500m
200 à 500 ft
< 800m
< 200 ft
Symboles :   Orages  Brouillard  Fortes neiges  Fortes précipitations  Vent > 20 kt
SIGMETs :   Divers  Orages  Givrage  Turbulence  Onde Orograph.  Cendres Volcan.






- Altitude de l'aérodrome : 231 ft
- Code IATA : WTN


EGXW - RAF Waddington

DERNIER METAR :
  • 301850Z AUTO 24010KT 9999 BKN130/// 16/09 Q1011

METARs EXPIRÉS :
  • 301750Z AUTO 21011KT 9999 FEW060/// BKN130/// 17/09 Q1010

TAF TAF EGXW
Valide du 30 à 18h jusqu'au 01 à 12h UTC


301639Z 3018/0112 21008KT 9999 SCT040
PROB30
TEMPO 3023/0105 3000 +SHRA +SHGS BKN022CB
PROB30
TEMPO 0105/0109 5000 SHRA BKN012CB
PROB40
TEMPO 0109/0112 4000 +SHRA BKN015CB



MET'MAP, la Météo Aéronautique d'un coup d'oeil ! - Copyright ORBIFLY Décembre 2007 - Disclaimer

ORBIFLY MET'MAP TEAM :

Programmation & Développement : Alexandra Zaïnal
Sur une idée originale de : Baudouin d'Aumeries
Soutien technique & logistique : Manuel Goepfert
Assistance : Marc-Olivier Méhu




SOURCES & CREDITS :

   NOAA